Time;durP1;ratioP1;P1;durP2;ratioP2;P2;SDS_P1;SDS_P2;PMS_P1;PMS_P2;Temp;Humidity;BMP_temperature;BMP_pressure;BME280_temperature;BME280_humidity;BME280_pressure;Samples;Min_cycle;Max_cycle;Signal;HPM_P1;HPM_P2
2022/01/04 00:01:41;;;;;;;27.23;9.27;;;8.50;99.90;;;;;;5054975;28;20181;-71
2022/01/04 00:04:07;;;;;;;25.75;9.30;;;8.50;99.90;;;;;;5056129;28;20047;-71
2022/01/04 00:06:33;;;;;;;23.35;8.98;;;8.50;99.90;;;;;;5055667;28;20036;-71
2022/01/04 00:09:01;;;;;;;24.05;9.55;;;8.50;99.90;;;;;;5055635;28;20044;-71
2022/01/04 00:14:12;;;;;;;26.88;9.73;;;8.50;99.90;;;;;;5055895;28;20048;-73
2022/01/04 00:16:39;;;;;;;25.65;10.02;;;8.60;99.90;;;;;;5055806;28;20048;-70
2022/01/04 00:19:05;;;;;;;25.10;9.85;;;8.60;99.90;;;;;;5055706;28;20044;-71
2022/01/04 00:21:31;;;;;;;26.60;10.45;;;8.60;99.90;;;;;;5038901;28;20066;-73
2022/01/04 00:23:56;;;;;;;23.50;9.90;;;8.60;99.90;;;;;;5055993;28;20059;-71
2022/01/04 00:26:22;;;;;;;28.05;9.38;;;8.60;99.90;;;;;;5039130;28;20052;-71
2022/01/04 00:28:48;;;;;;;25.27;9.23;;;8.60;99.90;;;;;;5054823;28;20037;-72
2022/01/04 00:31:13;;;;;;;21.92;9.85;;;8.60;99.90;;;;;;5055907;28;20048;-70
2022/01/04 00:33:39;;;;;;;23.02;10.35;;;8.60;99.90;;;;;;5055677;28;20421;-71
2022/01/04 00:36:06;;;;;;;28.17;10.55;;;8.60;99.90;;;;;;5055354;28;20043;-74
2022/01/04 00:38:31;;;;;;;29.75;10.55;;;8.60;99.90;;;;;;5056287;28;20045;-70
2022/01/04 00:40:57;;;;;;;28.25;10.43;;;8.50;99.90;;;;;;5039504;28;20131;-70
2022/01/04 00:43:22;;;;;;;28.98;10.18;;;8.60;99.90;;;;;;5055882;28;20059;-72
2022/01/04 00:45:49;;;;;;;25.90;10.05;;;8.60;99.90;;;;;;5055313;28;20036;-70
2022/01/04 00:50:40;;;;;;;24.92;10.43;;;8.60;99.90;;;;;;5054636;28;20128;-72
2022/01/04 00:53:07;;;;;;;25.25;9.60;;;8.60;99.90;;;;;;5054827;28;20036;-73
2022/01/04 00:55:33;;;;;;;28.25;10.63;;;8.50;99.90;;;;;;5055863;28;20448;-71
2022/01/04 00:58:00;;;;;;;25.40;10.73;;;8.60;99.90;;;;;;5038944;28;20041;-73
2022/01/04 01:00:26;;;;;;;22.65;10.25;;;8.50;99.90;;;;;;5055045;28;20048;-71
2022/01/04 01:02:53;;;;;;;27.63;10.05;;;8.50;99.90;;;;;;5055166;28;20056;-71
2022/01/04 01:05:19;;;;;;;24.60;10.43;;;8.50;99.90;;;;;;5055070;28;20048;-71
2022/01/04 01:07:45;;;;;;;31.60;10.73;;;8.50;99.90;;;;;;5055780;28;20087;-71
2022/01/04 01:10:41;;;;;;;30.58;11.02;;;8.50;99.90;;;;;;5054773;28;20359;-71
2022/01/04 01:13:07;;;;;;;33.17;11.18;;;8.50;99.90;;;;;;5055183;28;20510;-73
2022/01/04 01:15:35;;;;;;;23.95;10.02;;;8.50;99.90;;;;;;5058947;28;20047;-70
2022/01/04 01:18:02;;;;;;;30.25;10.48;;;8.50;99.90;;;;;;5058698;28;20093;-71
2022/01/04 01:20:27;;;;;;;26.63;10.50;;;8.50;99.90;;;;;;5056216;28;20369;-70
2022/01/04 01:22:53;;;;;;;24.30;10.48;;;8.50;99.90;;;;;;5059146;28;20047;-71
2022/01/04 01:25:20;;;;;;;27.75;10.52;;;8.40;99.90;;;;;;5059010;28;20048;-73
2022/01/04 01:27:46;;;;;;;24.25;10.60;;;8.40;99.90;;;;;;5058378;28;20056;-70
2022/01/04 01:30:13;;;;;;;19.88;11.00;;;8.40;99.90;;;;;;5058355;28;20053;-71
2022/01/04 01:32:39;;;;;;;24.42;10.90;;;8.40;99.90;;;;;;5059564;28;20063;-72
2022/01/04 01:35:05;;;;;;;23.45;10.23;;;8.40;99.90;;;;;;5058819;28;20374;-71
2022/01/04 01:37:31;;;;;;;24.38;10.73;;;8.40;99.90;;;;;;5042288;28;20037;-70
2022/01/04 01:39:56;;;;;;;21.50;10.50;;;8.40;99.90;;;;;;5058435;28;20041;-71
2022/01/04 01:42:23;;;;;;;30.00;10.80;;;8.40;99.90;;;;;;5058423;28;20570;-71
2022/01/04 01:44:49;;;;;;;24.05;10.23;;;8.30;99.90;;;;;;5058332;28;20053;-71
2022/01/04 01:47:15;;;;;;;29.95;10.77;;;8.30;99.90;;;;;;5041392;28;20033;-71
2022/01/04 01:49:40;;;;;;;25.75;10.52;;;8.30;99.90;;;;;;5058821;28;20047;-71
2022/01/04 01:52:07;;;;;;;27.15;10.98;;;8.30;99.90;;;;;;5058534;28;20048;-70
2022/01/04 01:54:32;;;;;;;25.08;10.90;;;8.30;99.90;;;;;;5058467;28;20036;-72
2022/01/04 01:56:58;;;;;;;32.55;10.90;;;8.30;99.90;;;;;;5058340;28;20051;-70
2022/01/04 01:59:24;;;;;;;30.55;10.98;;;8.30;99.90;;;;;;5057976;28;20048;-70
2022/01/04 02:01:51;;;;;;;27.13;10.65;;;8.30;99.90;;;;;;5058131;28;20075;-70
2022/01/04 02:04:16;;;;;;;28.00;10.50;;;8.30;99.90;;;;;;5058851;28;20045;-70
2022/01/04 02:06:42;;;;;;;35.50;12.20;;;8.30;99.90;;;;;;5057848;28;20477;-70
2022/01/04 02:09:08;;;;;;;27.70;11.20;;;8.30;99.90;;;;;;5041729;28;20079;-70
2022/01/04 02:11:34;;;;;;;26.20;10.88;;;8.30;99.90;;;;;;5058090;28;20040;-73
2022/01/04 02:14:02;;;;;;;33.13;12.52;;;8.20;99.90;;;;;;5057845;28;20040;-73
2022/01/04 02:16:30;;;;;;;24.35;11.43;;;8.30;99.90;;;;;;5058246;28;20436;-70
2022/01/04 02:19:05;;;;;;;34.85;12.15;;;8.20;99.90;;;;;;5058147;28;20394;-70
2022/01/04 02:21:32;;;;;;;28.58;11.30;;;8.30;99.90;;;;;;5058831;28;20048;-71
2022/01/04 02:23:58;;;;;;;35.08;12.80;;;8.20;99.90;;;;;;5057624;28;20094;-72
2022/01/04 02:26:24;;;;;;;30.58;12.35;;;8.20;99.90;;;;;;5056357;28;20036;-69
2022/01/04 02:28:50;;;;;;;28.05;12.05;;;8.20;99.90;;;;;;5058662;28;20379;-70
2022/01/04 02:31:16;;;;;;;27.10;12.20;;;8.20;99.90;;;;;;5057419;28;20052;-70
2022/01/04 02:33:42;;;;;;;29.35;12.30;;;8.20;99.90;;;;;;5057808;28;20426;-70
2022/01/04 02:36:08;;;;;;;35.25;12.60;;;8.10;99.90;;;;;;5057918;28;20076;-71
2022/01/04 02:38:34;;;;;;;28.40;11.93;;;8.10;99.90;;;;;;5057674;28;20040;-71
2022/01/04 02:41:00;;;;;;;30.67;13.68;;;8.10;99.90;;;;;;5056977;28;20036;-70
2022/01/04 02:43:26;;;;;;;24.55;11.73;;;8.10;99.90;;;;;;5053466;28;20382;-70
2022/01/04 02:45:52;;;;;;;32.55;13.43;;;8.10;99.90;;;;;;5037900;28;20044;-73
2022/01/04 02:48:18;;;;;;;29.58;13.15;;;8.00;99.90;;;;;;5055241;28;20394;-70
2022/01/04 02:50:43;;;;;;;26.52;12.82;;;8.00;99.90;;;;;;5057551;28;20056;-72
2022/01/04 02:53:09;;;;;;;29.77;13.65;;;8.00;99.90;;;;;;5040744;28;20360;-70
2022/01/04 02:55:35;;;;;;;37.55;14.18;;;8.00;99.90;;;;;;5057199;28;20489;-70
2022/01/04 02:58:00;;;;;;;34.88;14.15;;;8.00;99.90;;;;;;5057304;28;20427;-71
2022/01/04 03:00:28;;;;;;;32.30;13.50;;;8.00;99.90;;;;;;5053341;28;20423;-71
2022/01/04 03:02:54;;;;;;;27.73;14.30;;;8.00;99.90;;;;;;5037831;28;20053;-71
2022/01/04 03:05:20;;;;;;;34.05;13.90;;;8.00;99.90;;;;;;5037002;28;20403;-70
2022/01/04 03:07:45;;;;;;;37.95;15.32;;;8.00;99.90;;;;;;5036933;28;20546;-71
2022/01/04 03:10:11;;;;;;;31.48;14.02;;;8.00;99.90;;;;;;5037064;28;20510;-71
2022/01/04 03:12:43;;;;;;;31.48;13.73;;;8.00;99.90;;;;;;5036886;28;20044;-71
2022/01/04 03:15:10;;;;;;;35.30;15.35;;;8.00;99.90;;;;;;5020831;28;20131;-72
2022/01/04 03:17:35;;;;;;;34.47;16.20;;;8.00;99.90;;;;;;5036962;28;20041;-70
2022/01/04 03:20:01;;;;;;;30.98;15.25;;;8.00;99.90;;;;;;5046954;28;20106;-70
2022/01/04 03:22:27;;;;;;;36.55;15.18;;;7.90;99.90;;;;;;5056886;28;20049;-71
2022/01/04 03:24:52;;;;;;;37.40;15.57;;;8.00;99.90;;;;;;5056463;28;20051;-70
2022/01/04 03:27:18;;;;;;;30.40;15.52;;;8.00;99.90;;;;;;5057296;28;20047;-72
2022/01/04 03:29:44;;;;;;;43.92;16.17;;;8.00;99.90;;;;;;5056412;28;20064;-71
2022/01/04 03:32:11;;;;;;;31.50;15.15;;;8.00;99.90;;;;;;5056957;28;20105;-70
2022/01/04 03:34:37;;;;;;;41.05;16.15;;;8.00;99.90;;;;;;5056592;28;20485;-73
2022/01/04 03:37:03;;;;;;;35.60;17.20;;;8.00;99.90;;;;;;5056177;28;20490;-71
2022/01/04 03:39:28;;;;;;;41.53;17.17;;;8.10;99.90;;;;;;5056315;28;20033;-72
2022/01/04 03:41:54;;;;;;;37.33;18.00;;;8.10;99.90;;;;;;5056519;28;20044;-70
2022/01/04 03:44:20;;;;;;;41.33;18.60;;;8.10;99.90;;;;;;5056737;28;20044;-71
2022/01/04 03:46:48;;;;;;;50.17;19.17;;;8.00;99.90;;;;;;5056556;28;20105;-71
2022/01/04 03:49:13;;;;;;;39.60;18.50;;;8.00;99.90;;;;;;5055868;28;20028;-71
2022/01/04 03:51:39;;;;;;;41.13;18.35;;;8.10;99.90;;;;;;5039908;28;20181;-70
2022/01/04 03:54:05;;;;;;;40.00;18.95;;;8.10;99.90;;;;;;5055601;28;20089;-72
2022/01/04 03:56:30;;;;;;;45.22;19.67;;;8.10;99.90;;;;;;5056485;28;20036;-70
2022/01/04 03:58:56;;;;;;;46.30;18.98;;;8.00;99.90;;;;;;5040006;28;20052;-73
2022/01/04 04:01:21;;;;;;;46.28;20.73;;;8.10;99.90;;;;;;5056620;28;20123;-71
2022/01/04 04:03:47;;;;;;;50.20;19.45;;;8.10;99.90;;;;;;5055863;28;20040;-71
2022/01/04 04:06:13;;;;;;;44.53;19.90;;;8.10;99.90;;;;;;5055870;28;20566;-73
2022/01/04 04:08:39;;;;;;;41.95;19.15;;;8.10;99.90;;;;;;5055543;28;20127;-71
2022/01/04 04:11:05;;;;;;;47.85;20.05;;;8.10;99.90;;;;;;5039122;28;20047;-71
2022/01/04 04:13:31;;;;;;;45.53;19.95;;;8.10;99.90;;;;;;5056624;28;20048;-73
2022/01/04 04:15:56;;;;;;;44.00;20.58;;;8.10;99.90;;;;;;5056236;28;20036;-70
2022/01/04 04:18:22;;;;;;;41.95;19.27;;;8.10;99.90;;;;;;5055908;28;20083;-71
2022/01/04 04:20:48;;;;;;;46.65;20.50;;;8.10;99.90;;;;;;5055088;28;20131;-71
2022/01/04 04:23:14;;;;;;;42.20;20.00;;;8.10;99.90;;;;;;5051785;28;20394;-71
2022/01/04 04:25:40;;;;;;;38.95;19.88;;;8.10;99.90;;;;;;5035480;28;20045;-71
2022/01/04 04:28:06;;;;;;;43.13;20.50;;;8.10;99.90;;;;;;5036106;28;20040;-72
2022/01/04 04:30:32;;;;;;;47.17;21.33;;;8.10;99.90;;;;;;5065369;28;20501;-70
2022/01/04 04:32:58;;;;;;;40.08;19.25;;;8.10;99.90;;;;;;5054846;28;20123;-71
2022/01/04 04:35:25;;;;;;;46.65;20.77;;;8.10;99.90;;;;;;5055798;28;20130;-72
2022/01/04 04:37:51;;;;;;;41.80;19.77;;;8.10;99.90;;;;;;5055273;28;20063;-71
2022/01/04 04:40:16;;;;;;;45.00;20.67;;;8.10;99.90;;;;;;5055418;28;20037;-71
2022/01/04 04:42:42;;;;;;;46.13;21.20;;;8.10;99.90;;;;;;5056235;28;20044;-71
2022/01/04 04:45:08;;;;;;;48.00;21.10;;;8.10;99.90;;;;;;5055617;28;20036;-70
2022/01/04 04:47:34;;;;;;;40.38;20.02;;;8.10;99.90;;;;;;5055459;28;20067;-70
2022/01/04 04:50:00;;;;;;;41.65;20.20;;;8.10;99.90;;;;;;5058998;28;20375;-71
2022/01/04 04:52:25;;;;;;;45.70;20.10;;;8.10;99.90;;;;;;5059222;28;20036;-73
2022/01/04 04:54:51;;;;;;;42.72;20.65;;;8.10;99.90;;;;;;5059582;28;20045;-70
2022/01/04 04:57:17;;;;;;;39.30;20.30;;;8.10;99.90;;;;;;5059941;28;20040;-72
2022/01/04 04:59:42;;;;;;;42.80;20.02;;;8.10;99.90;;;;;;5042978;28;20041;-71
2022/01/04 05:02:08;;;;;;;40.95;19.08;;;8.10;99.90;;;;;;5059392;28;20032;-71
2022/01/04 05:04:35;;;;;;;42.38;19.63;;;8.10;99.90;;;;;;5059420;28;20048;-71
2022/01/04 05:07:01;;;;;;;41.65;18.33;;;8.10;99.90;;;;;;5059178;28;20082;-73
2022/01/04 05:09:26;;;;;;;35.40;18.92;;;8.10;99.90;;;;;;5058614;28;20048;-71
2022/01/04 05:11:52;;;;;;;40.42;19.70;;;8.10;99.90;;;;;;5059483;28;20048;-72
2022/01/04 05:14:18;;;;;;;35.03;17.98;;;8.10;99.90;;;;;;5059832;28;20076;-71
2022/01/04 05:16:44;;;;;;;38.67;19.30;;;8.10;99.90;;;;;;5059125;28;20040;-71
2022/01/04 05:19:09;;;;;;;39.88;19.20;;;8.20;99.90;;;;;;5059367;28;20048;-71
2022/01/04 05:21:35;;;;;;;35.20;18.33;;;8.10;99.90;;;;;;5042334;28;20040;-71
2022/01/04 05:24:01;;;;;;;33.78;17.45;;;8.20;99.90;;;;;;5042169;28;20556;-71
2022/01/04 05:26:27;;;;;;;40.78;18.55;;;8.10;99.90;;;;;;5059329;28;20032;-70
2022/01/04 05:28:52;;;;;;;35.55;18.27;;;8.10;99.90;;;;;;5059422;28;20076;-71
2022/01/04 05:31:18;;;;;;;38.13;17.60;;;8.20;99.90;;;;;;5058942;28;20383;-70
2022/01/04 05:33:44;;;;;;;33.38;17.70;;;8.20;99.90;;;;;;5058818;28;20048;-71
2022/01/04 05:36:09;;;;;;;39.13;18.95;;;8.20;99.90;;;;;;5058771;28;20086;-71
2022/01/04 05:38:35;;;;;;;38.40;18.77;;;8.10;99.90;;;;;;5058507;28;20094;-74
2022/01/04 05:41:01;;;;;;;39.42;19.45;;;8.10;99.90;;;;;;5058478;28;20044;-71
2022/01/04 05:43:26;;;;;;;40.97;20.73;;;8.10;99.90;;;;;;5058926;28;20044;-72
2022/01/04 05:45:52;;;;;;;40.80;20.60;;;8.10;99.90;;;;;;5058673;28;20459;-72
2022/01/04 05:48:20;;;;;;;42.33;20.15;;;8.10;99.90;;;;;;5058315;28;20036;-71
2022/01/04 05:50:46;;;;;;;42.17;20.85;;;8.10;99.90;;;;;;5058550;28;20046;-71
2022/01/04 05:53:12;;;;;;;43.35;21.02;;;8.10;99.90;;;;;;5058164;28;20103;-71
2022/01/04 05:55:38;;;;;;;42.53;20.45;;;8.10;99.90;;;;;;5058740;28;20435;-71
2022/01/04 05:58:04;;;;;;;40.92;19.20;;;8.10;99.90;;;;;;5058347;28;20055;-70
2022/01/04 06:00:29;;;;;;;43.50;20.70;;;8.10;99.90;;;;;;5057783;28;20051;-73
2022/01/04 06:02:55;;;;;;;37.85;20.63;;;8.10;99.90;;;;;;5058571;28;20047;-73
2022/01/04 06:05:21;;;;;;;39.75;20.33;;;8.20;99.90;;;;;;5041617;28;20056;-73
2022/01/04 06:07:46;;;;;;;37.53;18.63;;;8.10;99.90;;;;;;5057692;28;20076;-71
2022/01/04 06:10:14;;;;;;;39.95;19.45;;;8.10;99.90;;;;;;5054273;28;20044;-70
2022/01/04 06:15:08;;;;;;;39.20;20.45;;;8.10;99.90;;;;;;5058213;28;20048;-71
2022/01/04 06:17:38;;;;;;;36.72;20.25;;;8.10;99.90;;;;;;5057976;28;20080;-73
2022/01/04 06:20:12;;;;;;;32.40;19.52;;;8.10;99.90;;;;;;5057220;28;20048;-71
2022/01/04 06:22:39;;;;;;;40.85;20.08;;;8.10;99.90;;;;;;5054154;28;20040;-71
2022/01/04 06:25:06;;;;;;;39.42;20.02;;;8.10;99.90;;;;;;5057569;28;20406;-72
2022/01/04 06:27:32;;;;;;;41.90;21.63;;;8.10;99.90;;;;;;5041190;28;20040;-70
2022/01/04 06:29:58;;;;;;;35.83;19.55;;;8.10;99.90;;;;;;5057779;28;20051;-71
2022/01/04 06:32:24;;;;;;;38.70;21.02;;;8.10;99.90;;;;;;5057911;28;20051;-70
2022/01/04 06:34:50;;;;;;;38.83;19.98;;;8.10;99.90;;;;;;5057337;28;20053;-72
2022/01/04 06:37:17;;;;;;;45.92;20.58;;;8.10;99.90;;;;;;5058406;28;20044;-71
2022/01/04 06:39:44;;;;;;;43.83;21.05;;;8.00;99.90;;;;;;5054400;28;20045;-71
2022/01/04 06:42:11;;;;;;;43.85;21.33;;;8.10;99.90;;;;;;5037655;28;20056;-71
2022/01/04 06:44:37;;;;;;;41.88;20.05;;;8.10;99.90;;;;;;5037392;28;20506;-73
2022/01/04 06:47:04;;;;;;;40.40;21.33;;;8.00;99.90;;;;;;5046730;28;20041;-71
2022/01/04 06:49:29;;;;;;;39.00;21.08;;;8.00;99.90;;;;;;5057008;28;20040;-71
2022/01/04 06:51:55;;;;;;;41.80;21.05;;;8.10;99.90;;;;;;5057722;28;20375;-73
2022/01/04 06:54:21;;;;;;;41.15;20.20;;;8.00;99.90;;;;;;5041083;28;20134;-72
2022/01/04 06:56:48;;;;;;;43.53;21.77;;;8.00;99.90;;;;;;5057433;28;20040;-71
2022/01/04 06:59:15;;;;;;;43.55;21.42;;;8.10;99.90;;;;;;5057254;28;20040;-71
2022/01/04 07:01:41;;;;;;;44.90;22.15;;;8.10;99.90;;;;;;5057106;28;20037;-71
2022/01/04 07:04:07;;;;;;;41.75;22.00;;;8.00;99.90;;;;;;5056809;28;20040;-72
2022/01/04 07:06:33;;;;;;;42.97;21.98;;;8.00;99.90;;;;;;5057044;28;20398;-71
2022/01/04 07:08:59;;;;;;;40.00;21.73;;;8.00;99.90;;;;;;5053247;28;20491;-71
2022/01/04 07:11:25;;;;;;;48.80;23.30;;;8.00;99.90;;;;;;5036374;28;20048;-71
2022/01/04 07:13:50;;;;;;;43.25;22.08;;;8.10;99.90;;;;;;5037194;28;20041;-71
2022/01/04 07:16:16;;;;;;;44.25;22.52;;;8.00;99.90;;;;;;5036938;28;20041;-71
2022/01/04 07:18:46;;;;;;;43.22;22.00;;;8.10;99.90;;;;;;5036567;28;20051;-72
2022/01/04 07:21:13;;;;;;;;;;;8.10;99.90;;;;;;5037993;28;20128;-70
2022/01/04 07:23:38;;;;;;;46.92;22.38;;;8.10;99.90;;;;;;5036811;28;19917;-70
2022/01/04 07:26:04;;;;;;;44.35;22.90;;;8.10;99.90;;;;;;5037201;28;20059;-70
2022/01/04 07:28:31;;;;;;;48.28;22.48;;;8.00;99.90;;;;;;5039384;28;20032;-71
2022/01/04 07:30:57;;;;;;;40.95;23.30;;;8.10;99.90;;;;;;5056477;28;20044;-73
2022/01/04 07:33:22;;;;;;;49.63;22.58;;;8.10;99.90;;;;;;5056340;28;20040;-73
2022/01/04 07:35:48;;;;;;;43.58;22.98;;;8.10;99.90;;;;;;5056741;28;20498;-71
2022/01/04 07:38:14;;;;;;;42.83;22.38;;;8.10;99.90;;;;;;5053019;28;20235;-73
2022/01/04 07:40:40;;;;;;;41.28;22.70;;;8.10;99.90;;;;;;5021411;28;20071;-71
2022/01/04 07:43:05;;;;;;;50.25;23.27;;;8.10;99.90;;;;;;5039748;28;20047;-73
2022/01/04 07:45:32;;;;;;;48.10;22.50;;;8.10;99.90;;;;;;5052484;28;20501;-70
2022/01/04 07:47:59;;;;;;;45.75;23.02;;;8.10;99.90;;;;;;5035807;28;20072;-71
2022/01/04 07:50:25;;;;;;;46.80;24.88;;;8.10;99.90;;;;;;5037054;28;20131;-71
2022/01/04 07:52:51;;;;;;;51.88;25.20;;;8.10;99.90;;;;;;5036953;28;20356;-71
2022/01/04 07:55:17;;;;;;;45.78;24.35;;;8.10;99.90;;;;;;5036567;28;20592;-71
2022/01/04 07:57:44;;;;;;;45.70;23.52;;;8.10;99.90;;;;;;5036229;28;20041;-71
2022/01/04 08:00:12;;;;;;;50.53;23.83;;;8.10;99.90;;;;;;5052502;28;20067;-70
2022/01/04 08:02:40;;;;;;;54.35;25.33;;;8.20;99.90;;;;;;5055881;28;20060;-70
2022/01/04 08:05:09;;;;;;;52.63;24.17;;;8.20;99.90;;;;;;5056156;28;20494;-70
2022/01/04 08:07:35;;;;;;;48.53;22.75;;;8.10;99.90;;;;;;5056052;28;20040;-71
2022/01/04 08:10:00;;;;;;;42.53;23.20;;;8.10;99.90;;;;;;5055587;28;20120;-73
2022/01/04 08:12:26;;;;;;;44.70;23.88;;;8.10;99.90;;;;;;5052117;28;20102;-71
2022/01/04 08:14:52;;;;;;;51.35;24.05;;;8.00;99.90;;;;;;5055165;28;20462;-70
2022/01/04 08:17:18;;;;;;;46.42;24.50;;;8.10;99.90;;;;;;5055829;28;20054;-70
2022/01/04 08:19:43;;;;;;;52.70;24.95;;;8.10;99.90;;;;;;5055875;28;20475;-73
2022/01/04 08:22:10;;;;;;;46.70;24.35;;;8.10;99.90;;;;;;5055938;28;20040;-70
2022/01/04 08:24:35;;;;;;;46.40;23.67;;;8.00;99.90;;;;;;5055560;28;20040;-71
2022/01/04 08:27:01;;;;;;;52.08;25.00;;;8.10;99.90;;;;;;5055675;28;20098;-70
2022/01/04 08:29:27;;;;;;;47.40;23.63;;;8.00;99.90;;;;;;5051798;28;20076;-71
2022/01/04 08:31:53;;;;;;;44.70;23.27;;;8.10;99.90;;;;;;5019533;28;20041;-71
2022/01/04 08:34:19;;;;;;;46.60;24.02;;;8.10;99.90;;;;;;5036414;28;20049;-70
2022/01/04 08:36:45;;;;;;;41.58;22.75;;;8.00;99.90;;;;;;5035868;28;20064;-70
2022/01/04 08:39:14;;;;;;;39.70;22.15;;;8.00;99.90;;;;;;5035825;28;20383;-70
2022/01/04 08:41:50;;;;;;;43.80;21.70;;;8.00;99.90;;;;;;5019008;28;20487;-70
2022/01/04 08:44:16;;;;;;;36.65;21.45;;;8.00;99.90;;;;;;5035396;28;20048;-70
2022/01/04 08:46:42;;;;;;;41.65;20.58;;;8.00;99.90;;;;;;5035806;28;20048;-72
2022/01/04 08:49:08;;;;;;;40.13;20.73;;;8.00;99.90;;;;;;5035514;28;20041;-70
2022/01/04 08:51:34;;;;;;;46.28;21.35;;;8.10;99.90;;;;;;5035751;28;20037;-70
2022/01/04 08:54:00;;;;;;;41.38;20.92;;;8.00;99.90;;;;;;5035831;28;20116;-73
2022/01/04 08:56:26;;;;;;;41.45;21.52;;;8.00;99.90;;;;;;5035537;28;20048;-72
2022/01/04 08:58:52;;;;;;;39.08;21.63;;;8.00;99.90;;;;;;5039994;28;20471;-71
2022/01/04 09:01:18;;;;;;;43.28;21.67;;;8.00;99.90;;;;;;5056171;28;20040;-71
2022/01/04 09:03:44;;;;;;;45.45;22.92;;;8.00;99.90;;;;;;5055603;28;20380;-72
2022/01/04 09:06:11;;;;;;;41.92;21.40;;;8.00;99.90;;;;;;5055740;28;20044;-71
2022/01/04 09:08:37;;;;;;;44.42;21.88;;;8.10;99.90;;;;;;5054521;28;20036;-73
2022/01/04 09:11:03;;;;;;;41.88;21.50;;;8.00;99.90;;;;;;5055354;28;20129;-71
2022/01/04 09:13:35;;;;;;;40.13;21.60;;;8.00;99.90;;;;;;5055239;28;20040;-72
2022/01/04 09:18:43;;;;;;;39.88;22.55;;;8.00;99.90;;;;;;5052283;28;20131;-72
2022/01/04 09:21:29;;;;;;;44.70;22.80;;;8.10;99.90;;;;;;5035372;28;20067;-72
2022/01/04 09:23:58;;;;;;;42.88;22.40;;;8.10;99.90;;;;;;5049141;28;20052;-72
2022/01/04 09:26:25;;;;;;;44.10;23.30;;;8.10;99.90;;;;;;5055200;28;20508;-72
2022/01/04 09:28:51;;;;;;;45.28;24.85;;;8.10;99.90;;;;;;5055085;28;20041;-74
2022/01/04 09:31:20;;;;;;;45.25;24.48;;;8.10;99.90;;;;;;5055462;28;20386;-71
2022/01/04 09:33:46;;;;;;;42.55;24.55;;;8.10;99.90;;;;;;5055256;28;20086;-74
2022/01/04 09:36:12;;;;;;;49.58;24.45;;;8.00;99.90;;;;;;5058208;28;20044;-72
2022/01/04 09:38:37;;;;;;;48.95;24.83;;;8.10;99.90;;;;;;5059677;28;20056;-71
2022/01/04 09:41:03;;;;;;;56.78;26.50;;;8.10;99.90;;;;;;5058801;28;20465;-72
2022/01/04 09:43:30;;;;;;;52.90;25.65;;;8.00;99.90;;;;;;5059317;28;20040;-71
2022/01/04 09:45:56;;;;;;;56.30;26.70;;;8.00;99.90;;;;;;5058742;28;20478;-71
2022/01/04 09:48:22;;;;;;;43.95;22.83;;;8.00;99.90;;;;;;5058322;28;20090;-71
2022/01/04 09:50:48;;;;;;;15.30;8.65;;;8.00;99.90;;;;;;5058549;28;20044;-71
2022/01/04 09:53:21;;;;;;;6.70;3.67;;;7.90;99.90;;;;;;5054916;28;20442;-71
2022/01/04 09:55:53;;;;;;;4.75;2.30;;;7.70;99.90;;;;;;5021960;28;20048;-71
2022/01/04 09:58:20;;;;;;;7.47;2.70;;;7.60;99.90;;;;;;5038724;28;20087;-71
2022/01/04 10:00:47;;;;;;;7.13;2.63;;;7.50;99.90;;;;;;5054832;28;20045;-71
2022/01/04 10:03:16;;;;;;;8.30;3.28;;;7.40;99.90;;;;;;5056923;28;20500;-70
2022/01/04 10:05:43;;;;;;;14.93;6.88;;;7.40;99.90;;;;;;5041499;28;20045;-71
2022/01/04 10:08:10;;;;;;;16.15;7.90;;;7.40;99.90;;;;;;5057847;28;20079;-74
2022/01/04 10:10:36;;;;;;;21.00;9.63;;;7.40;99.90;;;;;;5058322;28;20091;-71
2022/01/04 10:13:11;;;;;;;20.35;9.82;;;7.40;99.90;;;;;;5058419;28;20052;-71
2022/01/04 10:15:40;;;;;;;20.10;9.60;;;7.40;99.90;;;;;;5041688;28;20045;-74
2022/01/04 10:18:16;;;;;;;17.90;8.93;;;7.50;99.90;;;;;;5057691;28;20088;-73
2022/01/04 10:21:02;;;;;;;15.60;7.65;;;7.50;99.90;;;;;;5057150;28;20099;-71
2022/01/04 10:23:29;;;;;;;12.52;6.78;;;7.50;99.90;;;;;;5055336;28;20037;-70
2022/01/04 10:26:06;;;;;;;13.88;6.88;;;7.50;99.90;;;;;;5040962;28;20044;-72
2022/01/04 10:28:39;;;;;;;14.40;6.68;;;7.50;99.90;;;;;;5057435;28;20040;-70
2022/01/04 10:31:08;;;;;;;9.60;5.50;;;7.50;99.90;;;;;;5058221;28;20048;-71
2022/01/04 10:33:35;;;;;;;10.57;6.10;;;7.50;99.90;;;;;;5058255;28;20087;-70
2022/01/04 10:36:11;;;;;;;11.40;6.05;;;7.50;99.90;;;;;;5056662;28;20043;-70
2022/01/04 10:38:38;;;;;;;10.20;5.78;;;7.50;99.90;;;;;;5040640;28;20080;-73
2022/01/04 10:41:16;;;;;;;13.07;5.80;;;7.50;99.90;;;;;;5057467;28;20040;-72
2022/01/04 10:43:45;;;;;;;13.07;5.55;;;7.60;99.90;;;;;;5057626;28;20479;-72
2022/01/04 10:46:18;;;;;;;14.20;5.50;;;7.50;99.90;;;;;;5056779;28;20065;-74
2022/01/04 10:48:49;;;;;;;11.27;5.57;;;7.60;99.90;;;;;;5057010;28;20040;-72
2022/01/04 10:51:22;;;;;;;13.63;5.20;;;7.60;99.90;;;;;;5056950;28;20041;-73
2022/01/04 10:53:54;;;;;;;11.45;5.80;;;7.60;99.90;;;;;;5056977;28;20059;-72
2022/01/04 10:56:31;;;;;;;16.38;6.75;;;7.60;99.90;;;;;;5057938;28;20078;-71
2022/01/04 10:58:58;;;;;;;15.18;6.40;;;7.60;99.90;;;;;;5057173;28;20418;-71
2022/01/04 11:01:29;;;;;;;8.63;3.17;;;7.60;99.90;;;;;;5057261;28;20036;-73
2022/01/04 11:03:57;;;;;;;9.15;3.50;;;7.50;99.90;;;;;;5057018;28;20032;-72
2022/01/04 11:06:36;;;;;;;8.45;3.97;;;7.50;99.90;;;;;;5057547;28;20098;-71
2022/01/04 11:09:04;;;;;;;9.73;3.80;;;7.50;99.90;;;;;;5056953;28;20059;-72
2022/01/04 11:11:31;;;;;;;8.63;2.80;;;7.40;99.90;;;;;;5056870;28;20471;-71
2022/01/04 11:13:58;;;;;;;8.63;3.03;;;7.30;99.90;;;;;;5056512;28;20119;-74
2022/01/04 11:16:26;;;;;;;7.43;2.35;;;7.30;99.90;;;;;;5056641;28;20048;-72
2022/01/04 11:18:55;;;;;;;11.57;2.10;;;7.30;99.90;;;;;;5057171;28;20098;-72
2022/01/04 11:21:32;;;;;;;9.73;2.20;;;7.20;99.90;;;;;;5057024;28;20075;-72
2022/01/04 11:24:01;;;;;;;8.88;1.90;;;7.20;99.90;;;;;;5039699;28;20113;-71
2022/01/04 11:26:27;;;;;;;5.80;1.63;;;7.20;99.90;;;;;;5056730;28;20115;-71
2022/01/04 11:28:55;;;;;;;6.50;1.50;;;7.10;99.90;;;;;;5056063;28;20044;-71
2022/01/04 11:31:57;;;;;;;5.85;1.60;;;7.10;99.90;;;;;;5057508;28;20044;-71
2022/01/04 11:34:35;;;;;;;14.98;1.80;;;7.00;99.90;;;;;;5040374;28;20482;-71
2022/01/04 11:37:01;;;;;;;7.60;1.20;;;7.00;99.90;;;;;;5056664;28;20140;-72
2022/01/04 11:39:36;;;;;;;4.78;1.05;;;7.10;99.90;;;;;;5056428;28;20472;-72
2022/01/04 11:42:10;;;;;;;3.17;1.23;;;7.10;99.90;;;;;;5039472;28;20458;-71
2022/01/04 11:44:48;;;;;;;9.02;1.52;;;7.00;99.90;;;;;;5058445;28;20051;-71
2022/01/04 11:47:22;;;;;;;8.68;3.22;;;7.00;99.90;;;;;;5052374;28;20455;-71
2022/01/04 11:50:31;;;;;;;12.70;4.40;;;7.00;99.90;;;;;;5072355;28;20040;-71
2022/01/04 11:52:58;;;;;;;33.47;11.45;;;7.00;99.90;;;;;;5056152;28;20487;-70
2022/01/04 11:55:30;;;;;;;12.60;4.63;;;6.90;99.90;;;;;;5056219;28;20051;-81
2022/01/04 11:58:02;;;;;;;18.77;5.70;;;6.90;99.90;;;;;;5038001;28;20050;-71
2022/01/04 12:00:38;;;;;;;10.82;4.63;;;6.90;99.90;;;;;;5055710;28;20059;-73
2022/01/04 12:03:13;;;;;;;9.25;2.15;;;6.90;99.90;;;;;;5056259;28;20098;-71
2022/01/04 12:05:59;;;;;;;7.25;2.38;;;6.90;99.90;;;;;;5056410;28;20040;-71
2022/01/04 12:08:32;;;;;;;3.28;1.50;;;6.80;99.90;;;;;;5055785;28;20040;-74
2022/01/04 12:10:58;;;;;;;2.20;1.10;;;6.70;99.90;;;;;;5056076;28;20076;-71
2022/01/04 12:13:25;;;;;;;4.88;1.48;;;6.70;99.90;;;;;;5039095;28;20079;-71
2022/01/04 12:16:07;;;;;;;3.28;1.67;;;6.70;99.90;;;;;;5055898;28;20040;-71
2022/01/04 12:18:34;;;;;;;6.75;1.67;;;6.60;99.90;;;;;;5055604;28;20051;-72
2022/01/04 12:21:01;;;;;;;4.15;1.40;;;6.60;99.90;;;;;;5055633;28;20154;-71
2022/01/04 12:23:30;;;;;;;3.50;1.05;;;6.50;99.90;;;;;;5056324;28;20044;-72
2022/01/04 12:26:05;;;;;;;6.65;1.95;;;6.50;99.90;;;;;;5056042;28;20051;-73
2022/01/04 12:28:45;;;;;;;6.40;1.95;;;6.50;99.90;;;;;;5055476;28;20379;-71
2022/01/04 12:31:15;;;;;;;12.60;5.07;;;6.50;99.90;;;;;;5055856;28;20119;-73
2022/01/04 12:33:42;;;;;;;8.95;2.35;;;6.50;99.90;;;;;;5055472;28;20479;-71
2022/01/04 12:36:09;;;;;;;7.60;3.85;;;6.40;99.90;;;;;;5056204;28;20044;-74
2022/01/04 12:38:35;;;;;;;10.80;4.57;;;6.40;99.90;;;;;;5056112;28;20102;-72
2022/01/04 12:41:01;;;;;;;9.57;2.08;;;6.30;99.90;;;;;;5038889;28;20134;-71
2022/01/04 12:43:28;;;;;;;5.07;1.10;;;6.30;99.90;;;;;;5055499;28;20032;-72
2022/01/04 12:46:03;;;;;;;2.20;0.88;;;6.30;99.90;;;;;;5055578;28;20040;-71
2022/01/04 12:48:44;;;;;;;5.03;2.10;;;6.20;99.90;;;;;;5055222;28;20442;-75
2022/01/04 12:51:26;;;;;;;5.60;1.00;;;6.20;99.90;;;;;;5055793;28;20066;-72
2022/01/04 12:53:53;;;;;;;7.85;1.20;;;6.10;99.90;;;;;;5055448;28;20429;-72